sensor_id;sensor_type;location;lat;lon;timestamp;temperature;humidity
18950;DHT22;9608;49.288;8.130;2023-11-19T00:02:25;10.00;99.90
18950;DHT22;9608;49.288;8.130;2023-11-19T00:04:52;9.90;99.90
18950;DHT22;9608;49.288;8.130;2023-11-19T00:07:18;9.90;99.90
18950;DHT22;9608;49.288;8.130;2023-11-19T00:09:47;9.80;99.90
18950;DHT22;9608;49.288;8.130;2023-11-19T00:12:13;9.80;99.90
18950;DHT22;9608;49.288;8.130;2023-11-19T00:14:40;9.80;99.90
18950;DHT22;9608;49.288;8.130;2023-11-19T00:17:07;9.80;99.90
18950;DHT22;9608;49.288;8.130;2023-11-19T00:19:34;9.90;99.90
18950;DHT22;9608;49.288;8.130;2023-11-19T00:22:00;10.00;99.90
18950;DHT22;9608;49.288;8.130;2023-11-19T00:24:28;10.30;99.90
18950;DHT22;9608;49.288;8.130;2023-11-19T00:26:57;10.50;99.90
18950;DHT22;9608;49.288;8.130;2023-11-19T00:29:23;10.60;99.90
18950;DHT22;9608;49.288;8.130;2023-11-19T00:31:50;10.60;99.90
18950;DHT22;9608;49.288;8.130;2023-11-19T00:34:17;10.70;99.90
18950;DHT22;9608;49.288;8.130;2023-11-19T00:36:47;10.70;99.90
18950;DHT22;9608;49.288;8.130;2023-11-19T00:39:13;10.80;99.90
18950;DHT22;9608;49.288;8.130;2023-11-19T00:41:41;10.90;99.90
18950;DHT22;9608;49.288;8.130;2023-11-19T00:44:09;10.90;99.90
18950;DHT22;9608;49.288;8.130;2023-11-19T00:46:35;10.90;99.90
18950;DHT22;9608;49.288;8.130;2023-11-19T00:49:02;10.90;99.90
18950;DHT22;9608;49.288;8.130;2023-11-19T00:51:29;10.90;99.90
18950;DHT22;9608;49.288;8.130;2023-11-19T00:53:57;10.90;99.90
18950;DHT22;9608;49.288;8.130;2023-11-19T00:56:24;11.00;99.90
18950;DHT22;9608;49.288;8.130;2023-11-19T00:58:51;11.00;99.90
18950;DHT22;9608;49.288;8.130;2023-11-19T01:01:19;11.00;99.90
18950;DHT22;9608;49.288;8.130;2023-11-19T01:03:46;11.00;99.90
18950;DHT22;9608;49.288;8.130;2023-11-19T01:06:12;11.00;99.90
18950;DHT22;9608;49.288;8.130;2023-11-19T01:08:42;11.10;99.90
18950;DHT22;9608;49.288;8.130;2023-11-19T01:11:19;11.10;99.90
18950;DHT22;9608;49.288;8.130;2023-11-19T01:13:46;11.20;99.90
18950;DHT22;9608;49.288;8.130;2023-11-19T01:16:13;11.20;99.90
18950;DHT22;9608;49.288;8.130;2023-11-19T01:18:41;11.10;99.90
18950;DHT22;9608;49.288;8.130;2023-11-19T01:21:08;11.00;99.90
18950;DHT22;9608;49.288;8.130;2023-11-19T01:23:35;11.00;99.90
18950;DHT22;9608;49.288;8.130;2023-11-19T01:26:02;11.10;99.90
18950;DHT22;9608;49.288;8.130;2023-11-19T01:28:30;11.10;99.90
18950;DHT22;9608;49.288;8.130;2023-11-19T01:30:57;11.10;99.90
18950;DHT22;9608;49.288;8.130;2023-11-19T01:33:24;11.20;99.90
18950;DHT22;9608;49.288;8.130;2023-11-19T01:35:52;11.20;99.90
18950;DHT22;9608;49.288;8.130;2023-11-19T01:38:18;11.30;99.90
18950;DHT22;9608;49.288;8.130;2023-11-19T01:40:45;11.30;99.90
18950;DHT22;9608;49.288;8.130;2023-11-19T01:43:12;11.30;99.90
18950;DHT22;9608;49.288;8.130;2023-11-19T01:45:40;11.30;99.90
18950;DHT22;9608;49.288;8.130;2023-11-19T01:48:07;11.30;99.90
18950;DHT22;9608;49.288;8.130;2023-11-19T01:50:37;11.40;99.90
18950;DHT22;9608;49.288;8.130;2023-11-19T01:53:05;11.40;99.90
18950;DHT22;9608;49.288;8.130;2023-11-19T01:55:31;11.50;99.90
18950;DHT22;9608;49.288;8.130;2023-11-19T01:58:00;11.50;99.90
18950;DHT22;9608;49.288;8.130;2023-11-19T02:00:27;11.50;99.90
18950;DHT22;9608;49.288;8.130;2023-11-19T02:02:54;11.50;99.90
18950;DHT22;9608;49.288;8.130;2023-11-19T02:05:22;11.60;99.90
18950;DHT22;9608;49.288;8.130;2023-11-19T02:07:48;11.60;99.90
18950;DHT22;9608;49.288;8.130;2023-11-19T02:10:18;11.70;99.90
18950;DHT22;9608;49.288;8.130;2023-11-19T02:12:45;11.70;99.90
18950;DHT22;9608;49.288;8.130;2023-11-19T02:15:12;11.80;99.90
18950;DHT22;9608;49.288;8.130;2023-11-19T02:17:39;11.70;99.90
18950;DHT22;9608;49.288;8.130;2023-11-19T02:20:07;11.80;99.90
18950;DHT22;9608;49.288;8.130;2023-11-19T02:22:34;11.80;99.90
18950;DHT22;9608;49.288;8.130;2023-11-19T02:25:06;11.80;99.90
18950;DHT22;9608;49.288;8.130;2023-11-19T02:27:50;11.90;99.90
18950;DHT22;9608;49.288;8.130;2023-11-19T02:30:17;12.00;99.90
18950;DHT22;9608;49.288;8.130;2023-11-19T02:32:44;11.90;99.90
18950;DHT22;9608;49.288;8.130;2023-11-19T02:35:11;11.90;99.90
18950;DHT22;9608;49.288;8.130;2023-11-19T02:37:38;11.90;99.90
18950;DHT22;9608;49.288;8.130;2023-11-19T02:40:06;11.80;99.90
18950;DHT22;9608;49.288;8.130;2023-11-19T02:42:34;11.80;99.90
18950;DHT22;9608;49.288;8.130;2023-11-19T02:45:02;11.80;99.90
18950;DHT22;9608;49.288;8.130;2023-11-19T02:47:31;11.80;99.90
18950;DHT22;9608;49.288;8.130;2023-11-19T02:49:59;11.80;99.90
18950;DHT22;9608;49.288;8.130;2023-11-19T02:52:25;11.90;99.90
18950;DHT22;9608;49.288;8.130;2023-11-19T02:54:52;11.90;99.90
18950;DHT22;9608;49.288;8.130;2023-11-19T02:57:19;11.90;99.90
18950;DHT22;9608;49.288;8.130;2023-11-19T02:59:46;11.90;99.90
18950;DHT22;9608;49.288;8.130;2023-11-19T03:02:15;11.90;99.90
18950;DHT22;9608;49.288;8.130;2023-11-19T03:04:43;11.90;99.90
18950;DHT22;9608;49.288;8.130;2023-11-19T03:07:11;11.80;99.90
18950;DHT22;9608;49.288;8.130;2023-11-19T03:09:39;11.80;99.90
18950;DHT22;9608;49.288;8.130;2023-11-19T03:12:07;11.70;99.90
18950;DHT22;9608;49.288;8.130;2023-11-19T03:14:34;11.70;99.90
18950;DHT22;9608;49.288;8.130;2023-11-19T03:17:00;11.50;99.90
18950;DHT22;9608;49.288;8.130;2023-11-19T03:19:28;11.40;99.90
18950;DHT22;9608;49.288;8.130;2023-11-19T03:21:55;11.30;99.90
18950;DHT22;9608;49.288;8.130;2023-11-19T03:24:22;11.20;99.90
18950;DHT22;9608;49.288;8.130;2023-11-19T03:26:50;11.10;99.90
18950;DHT22;9608;49.288;8.130;2023-11-19T03:29:17;11.10;99.90
18950;DHT22;9608;49.288;8.130;2023-11-19T03:31:43;11.00;99.90
18950;DHT22;9608;49.288;8.130;2023-11-19T03:34:11;11.10;99.90
18950;DHT22;9608;49.288;8.130;2023-11-19T03:36:39;11.10;99.90
18950;DHT22;9608;49.288;8.130;2023-11-19T03:39:06;11.10;99.90
18950;DHT22;9608;49.288;8.130;2023-11-19T03:41:33;11.20;99.90
18950;DHT22;9608;49.288;8.130;2023-11-19T03:44:00;11.10;99.90
18950;DHT22;9608;49.288;8.130;2023-11-19T03:46:26;11.10;99.90
18950;DHT22;9608;49.288;8.130;2023-11-19T03:48:55;11.10;99.90
18950;DHT22;9608;49.288;8.130;2023-11-19T03:51:21;11.10;99.90
18950;DHT22;9608;49.288;8.130;2023-11-19T03:53:49;11.10;99.90
18950;DHT22;9608;49.288;8.130;2023-11-19T03:56:16;11.10;99.90
18950;DHT22;9608;49.288;8.130;2023-11-19T03:58:43;11.10;99.90
18950;DHT22;9608;49.288;8.130;2023-11-19T04:01:11;11.20;99.90
18950;DHT22;9608;49.288;8.130;2023-11-19T04:03:38;11.40;99.90
18950;DHT22;9608;49.288;8.130;2023-11-19T04:06:06;11.50;99.90
18950;DHT22;9608;49.288;8.130;2023-11-19T04:08:32;11.60;99.90
18950;DHT22;9608;49.288;8.130;2023-11-19T04:11:02;11.70;99.90
18950;DHT22;9608;49.288;8.130;2023-11-19T04:13:29;11.70;99.90
18950;DHT22;9608;49.288;8.130;2023-11-19T04:15:56;11.80;99.90
18950;DHT22;9608;49.288;8.130;2023-11-19T04:18:22;11.80;99.90
18950;DHT22;9608;49.288;8.130;2023-11-19T04:20:49;11.80;99.90
18950;DHT22;9608;49.288;8.130;2023-11-19T04:23:16;11.90;99.90
18950;DHT22;9608;49.288;8.130;2023-11-19T04:25:43;11.90;99.90
18950;DHT22;9608;49.288;8.130;2023-11-19T04:28:11;12.00;99.90
18950;DHT22;9608;49.288;8.130;2023-11-19T04:30:37;12.10;99.90
18950;DHT22;9608;49.288;8.130;2023-11-19T04:33:04;12.10;99.90
18950;DHT22;9608;49.288;8.130;2023-11-19T04:35:31;12.20;99.90
18950;DHT22;9608;49.288;8.130;2023-11-19T04:37:58;12.30;99.90
18950;DHT22;9608;49.288;8.130;2023-11-19T04:40:24;12.20;99.90
18950;DHT22;9608;49.288;8.130;2023-11-19T04:42:51;12.30;99.90
18950;DHT22;9608;49.288;8.130;2023-11-19T04:45:19;12.30;99.90
18950;DHT22;9608;49.288;8.130;2023-11-19T04:47:46;12.40;99.90
18950;DHT22;9608;49.288;8.130;2023-11-19T04:50:12;12.40;99.90
18950;DHT22;9608;49.288;8.130;2023-11-19T04:52:39;12.40;99.90
18950;DHT22;9608;49.288;8.130;2023-11-19T04:55:08;12.40;99.90
18950;DHT22;9608;49.288;8.130;2023-11-19T04:57:37;12.50;99.90
18950;DHT22;9608;49.288;8.130;2023-11-19T05:00:04;12.50;99.90
18950;DHT22;9608;49.288;8.130;2023-11-19T05:02:34;12.50;99.90
18950;DHT22;9608;49.288;8.130;2023-11-19T05:05:01;12.50;99.90
18950;DHT22;9608;49.288;8.130;2023-11-19T05:07:29;12.60;99.90
18950;DHT22;9608;49.288;8.130;2023-11-19T05:09:55;12.60;99.90
18950;DHT22;9608;49.288;8.130;2023-11-19T05:12:22;12.60;99.90
18950;DHT22;9608;49.288;8.130;2023-11-19T05:14:49;12.60;99.90
18950;DHT22;9608;49.288;8.130;2023-11-19T05:17:16;12.60;99.90
18950;DHT22;9608;49.288;8.130;2023-11-19T05:19:45;12.70;99.90
18950;DHT22;9608;49.288;8.130;2023-11-19T05:22:13;12.70;99.90
18950;DHT22;9608;49.288;8.130;2023-11-19T05:24:40;12.80;99.90
18950;DHT22;9608;49.288;8.130;2023-11-19T05:27:07;12.80;99.90
18950;DHT22;9608;49.288;8.130;2023-11-19T05:29:34;12.90;99.90
18950;DHT22;9608;49.288;8.130;2023-11-19T05:32:00;13.00;99.90
18950;DHT22;9608;49.288;8.130;2023-11-19T05:34:27;12.90;99.90
18950;DHT22;9608;49.288;8.130;2023-11-19T05:36:55;13.00;99.90
18950;DHT22;9608;49.288;8.130;2023-11-19T05:39:22;13.00;99.90
18950;DHT22;9608;49.288;8.130;2023-11-19T05:41:50;13.10;99.90
18950;DHT22;9608;49.288;8.130;2023-11-19T05:44:17;13.10;99.90
18950;DHT22;9608;49.288;8.130;2023-11-19T05:46:44;13.30;99.90
18950;DHT22;9608;49.288;8.130;2023-11-19T05:49:11;13.30;99.90
18950;DHT22;9608;49.288;8.130;2023-11-19T05:51:38;13.30;99.90
18950;DHT22;9608;49.288;8.130;2023-11-19T05:54:08;13.30;99.90
18950;DHT22;9608;49.288;8.130;2023-11-19T05:56:36;13.30;99.90
18950;DHT22;9608;49.288;8.130;2023-11-19T05:59:03;13.30;99.90
18950;DHT22;9608;49.288;8.130;2023-11-19T06:01:33;13.30;99.90
18950;DHT22;9608;49.288;8.130;2023-11-19T06:04:00;13.20;99.90
18950;DHT22;9608;49.288;8.130;2023-11-19T06:06:27;13.20;99.90
18950;DHT22;9608;49.288;8.130;2023-11-19T06:08:54;13.20;99.90
18950;DHT22;9608;49.288;8.130;2023-11-19T06:11:23;13.30;99.90
18950;DHT22;9608;49.288;8.130;2023-11-19T06:13:52;13.40;99.90
18950;DHT22;9608;49.288;8.130;2023-11-19T06:16:19;13.40;99.90
18950;DHT22;9608;49.288;8.130;2023-11-19T06:18:45;13.50;99.90
18950;DHT22;9608;49.288;8.130;2023-11-19T06:21:12;13.50;99.90
18950;DHT22;9608;49.288;8.130;2023-11-19T06:23:39;13.50;99.90
18950;DHT22;9608;49.288;8.130;2023-11-19T06:26:06;13.60;99.90
18950;DHT22;9608;49.288;8.130;2023-11-19T06:28:34;13.70;99.90
18950;DHT22;9608;49.288;8.130;2023-11-19T06:31:01;13.60;99.90
18950;DHT22;9608;49.288;8.130;2023-11-19T06:33:29;13.60;99.90
18950;DHT22;9608;49.288;8.130;2023-11-19T06:35:56;13.50;99.90
18950;DHT22;9608;49.288;8.130;2023-11-19T06:38:22;13.30;99.90
18950;DHT22;9608;49.288;8.130;2023-11-19T06:40:49;13.30;99.90
18950;DHT22;9608;49.288;8.130;2023-11-19T06:43:16;13.30;99.90
18950;DHT22;9608;49.288;8.130;2023-11-19T06:45:44;13.30;99.90
18950;DHT22;9608;49.288;8.130;2023-11-19T06:48:11;13.20;99.90
18950;DHT22;9608;49.288;8.130;2023-11-19T06:50:38;13.30;99.90
18950;DHT22;9608;49.288;8.130;2023-11-19T06:53:04;13.30;99.90
18950;DHT22;9608;49.288;8.130;2023-11-19T06:55:35;13.40;99.90
18950;DHT22;9608;49.288;8.130;2023-11-19T06:58:02;13.40;99.90
18950;DHT22;9608;49.288;8.130;2023-11-19T07:00:29;13.30;99.90
18950;DHT22;9608;49.288;8.130;2023-11-19T07:02:59;13.30;99.90
18950;DHT22;9608;49.288;8.130;2023-11-19T07:05:26;13.40;99.90
18950;DHT22;9608;49.288;8.130;2023-11-19T07:07:53;13.30;99.90
18950;DHT22;9608;49.288;8.130;2023-11-19T07:10:21;13.20;99.90
18950;DHT22;9608;49.288;8.130;2023-11-19T07:12:47;13.10;99.90
18950;DHT22;9608;49.288;8.130;2023-11-19T07:15:15;13.00;99.90
18950;DHT22;9608;49.288;8.130;2023-11-19T07:17:43;12.90;99.90
18950;DHT22;9608;49.288;8.130;2023-11-19T07:20:12;12.90;99.90
18950;DHT22;9608;49.288;8.130;2023-11-19T07:22:43;12.80;99.90
18950;DHT22;9608;49.288;8.130;2023-11-19T07:25:11;12.80;99.90
18950;DHT22;9608;49.288;8.130;2023-11-19T07:27:37;12.70;99.90
18950;DHT22;9608;49.288;8.130;2023-11-19T07:30:05;12.90;99.90
18950;DHT22;9608;49.288;8.130;2023-11-19T07:32:33;13.00;99.90
18950;DHT22;9608;49.288;8.130;2023-11-19T07:34:59;13.10;99.90
18950;DHT22;9608;49.288;8.130;2023-11-19T07:37:27;13.20;99.90
18950;DHT22;9608;49.288;8.130;2023-11-19T07:39:54;13.20;99.90
18950;DHT22;9608;49.288;8.130;2023-11-19T07:42:21;13.30;99.90
18950;DHT22;9608;49.288;8.130;2023-11-19T07:44:48;13.40;99.90
18950;DHT22;9608;49.288;8.130;2023-11-19T07:47:15;13.40;99.90
18950;DHT22;9608;49.288;8.130;2023-11-19T07:49:41;13.50;99.90
18950;DHT22;9608;49.288;8.130;2023-11-19T07:52:09;13.60;99.90
18950;DHT22;9608;49.288;8.130;2023-11-19T07:54:37;13.60;99.90
18950;DHT22;9608;49.288;8.130;2023-11-19T07:57:04;13.60;99.90
18950;DHT22;9608;49.288;8.130;2023-11-19T07:59:30;13.70;99.90
18950;DHT22;9608;49.288;8.130;2023-11-19T08:01:57;13.70;99.90
18950;DHT22;9608;49.288;8.130;2023-11-19T08:04:24;13.80;99.90
18950;DHT22;9608;49.288;8.130;2023-11-19T08:06:50;13.70;99.90
18950;DHT22;9608;49.288;8.130;2023-11-19T08:09:17;13.70;99.90
18950;DHT22;9608;49.288;8.130;2023-11-19T08:11:45;13.70;99.90
18950;DHT22;9608;49.288;8.130;2023-11-19T08:14:12;13.70;99.90
18950;DHT22;9608;49.288;8.130;2023-11-19T08:16:39;13.80;99.90
18950;DHT22;9608;49.288;8.130;2023-11-19T08:19:06;13.80;99.90
18950;DHT22;9608;49.288;8.130;2023-11-19T08:21:34;13.80;99.90
18950;DHT22;9608;49.288;8.130;2023-11-19T08:24:00;13.90;99.90
18950;DHT22;9608;49.288;8.130;2023-11-19T08:26:27;13.90;99.90
18950;DHT22;9608;49.288;8.130;2023-11-19T08:28:55;14.10;99.90
18950;DHT22;9608;49.288;8.130;2023-11-19T08:31:24;14.20;99.90
18950;DHT22;9608;49.288;8.130;2023-11-19T08:33:51;14.10;99.90
18950;DHT22;9608;49.288;8.130;2023-11-19T08:36:18;14.10;99.90
18950;DHT22;9608;49.288;8.130;2023-11-19T08:38:44;14.10;99.90
18950;DHT22;9608;49.288;8.130;2023-11-19T08:41:11;14.20;99.90
18950;DHT22;9608;49.288;8.130;2023-11-19T08:43:38;14.10;99.90
18950;DHT22;9608;49.288;8.130;2023-11-19T08:46:10;14.20;99.90
18950;DHT22;9608;49.288;8.130;2023-11-19T08:48:37;14.20;99.90
18950;DHT22;9608;49.288;8.130;2023-11-19T08:51:05;14.30;99.90
18950;DHT22;9608;49.288;8.130;2023-11-19T08:53:31;14.30;99.90
18950;DHT22;9608;49.288;8.130;2023-11-19T08:55:58;14.40;99.90
18950;DHT22;9608;49.288;8.130;2023-11-19T08:58:25;14.50;99.90
18950;DHT22;9608;49.288;8.130;2023-11-19T09:00:52;14.50;99.90
18950;DHT22;9608;49.288;8.130;2023-11-19T09:03:20;14.40;99.90
18950;DHT22;9608;49.288;8.130;2023-11-19T09:05:47;14.40;99.90
18950;DHT22;9608;49.288;8.130;2023-11-19T09:08:14;14.40;99.90
18950;DHT22;9608;49.288;8.130;2023-11-19T09:10:40;14.50;99.90
18950;DHT22;9608;49.288;8.130;2023-11-19T09:13:07;14.30;99.90
18950;DHT22;9608;49.288;8.130;2023-11-19T09:15:34;14.30;99.90
18950;DHT22;9608;49.288;8.130;2023-11-19T09:18:00;14.30;99.90
18950;DHT22;9608;49.288;8.130;2023-11-19T09:20:28;14.20;99.90
18950;DHT22;9608;49.288;8.130;2023-11-19T09:23:02;14.20;99.90
18950;DHT22;9608;49.288;8.130;2023-11-19T09:25:29;14.20;99.90
18950;DHT22;9608;49.288;8.130;2023-11-19T09:27:56;14.40;99.90
18950;DHT22;9608;49.288;8.130;2023-11-19T09:30:22;14.40;99.90
18950;DHT22;9608;49.288;8.130;2023-11-19T09:32:49;14.40;99.90
18950;DHT22;9608;49.288;8.130;2023-11-19T09:35:16;14.50;99.90
18950;DHT22;9608;49.288;8.130;2023-11-19T09:37:44;14.60;99.90
18950;DHT22;9608;49.288;8.130;2023-11-19T09:40:11;14.70;99.90
18950;DHT22;9608;49.288;8.130;2023-11-19T09:42:43;14.60;99.90
18950;DHT22;9608;49.288;8.130;2023-11-19T09:45:13;14.70;99.90
18950;DHT22;9608;49.288;8.130;2023-11-19T09:47:42;14.80;99.90
18950;DHT22;9608;49.288;8.130;2023-11-19T09:50:11;14.90;99.90
18950;DHT22;9608;49.288;8.130;2023-11-19T09:52:40;14.90;99.90
18950;DHT22;9608;49.288;8.130;2023-11-19T09:55:08;15.00;99.90
18950;DHT22;9608;49.288;8.130;2023-11-19T09:57:35;14.90;99.90
18950;DHT22;9608;49.288;8.130;2023-11-19T10:00:05;15.00;99.90
18950;DHT22;9608;49.288;8.130;2023-11-19T10:02:34;14.90;99.90
18950;DHT22;9608;49.288;8.130;2023-11-19T10:05:04;14.70;99.90
18950;DHT22;9608;49.288;8.130;2023-11-19T10:07:32;14.70;99.90
18950;DHT22;9608;49.288;8.130;2023-11-19T10:09:59;14.80;99.90
18950;DHT22;9608;49.288;8.130;2023-11-19T10:12:28;14.70;99.90
18950;DHT22;9608;49.288;8.130;2023-11-19T10:14:56;14.70;99.90
18950;DHT22;9608;49.288;8.130;2023-11-19T10:17:27;14.80;99.90
18950;DHT22;9608;49.288;8.130;2023-11-19T10:19:54;14.70;99.90
18950;DHT22;9608;49.288;8.130;2023-11-19T10:22:22;14.70;99.90
18950;DHT22;9608;49.288;8.130;2023-11-19T10:24:49;14.70;99.90
18950;DHT22;9608;49.288;8.130;2023-11-19T10:27:17;14.90;99.90
18950;DHT22;9608;49.288;8.130;2023-11-19T10:29:46;15.00;99.90
18950;DHT22;9608;49.288;8.130;2023-11-19T10:32:13;15.00;99.90
18950;DHT22;9608;49.288;8.130;2023-11-19T10:34:41;15.00;99.90
18950;DHT22;9608;49.288;8.130;2023-11-19T10:37:08;15.00;99.90
18950;DHT22;9608;49.288;8.130;2023-11-19T10:39:53;15.10;99.90
18950;DHT22;9608;49.288;8.130;2023-11-19T10:42:21;15.10;99.90
18950;DHT22;9608;49.288;8.130;2023-11-19T10:44:49;15.10;99.90
18950;DHT22;9608;49.288;8.130;2023-11-19T10:47:18;14.90;99.90
18950;DHT22;9608;49.288;8.130;2023-11-19T10:49:46;14.80;99.90
18950;DHT22;9608;49.288;8.130;2023-11-19T10:52:17;14.90;99.90
18950;DHT22;9608;49.288;8.130;2023-11-19T10:54:44;15.00;99.90
18950;DHT22;9608;49.288;8.130;2023-11-19T10:57:20;14.90;99.90
18950;DHT22;9608;49.288;8.130;2023-11-19T10:59:49;14.80;99.90
18950;DHT22;9608;49.288;8.130;2023-11-19T11:02:20;14.90;99.90
18950;DHT22;9608;49.288;8.130;2023-11-19T11:04:49;14.90;99.90
18950;DHT22;9608;49.288;8.130;2023-11-19T11:07:21;14.90;99.90
18950;DHT22;9608;49.288;8.130;2023-11-19T11:09:51;14.90;99.90
18950;DHT22;9608;49.288;8.130;2023-11-19T11:12:21;14.90;99.90
18950;DHT22;9608;49.288;8.130;2023-11-19T11:14:51;14.80;99.90
18950;DHT22;9608;49.288;8.130;2023-11-19T11:17:20;14.90;99.90
18950;DHT22;9608;49.288;8.130;2023-11-19T11:19:50;14.90;99.90
18950;DHT22;9608;49.288;8.130;2023-11-19T11:22:18;15.00;99.90
18950;DHT22;9608;49.288;8.130;2023-11-19T11:25:10;15.10;99.90
18950;DHT22;9608;49.288;8.130;2023-11-19T11:27:53;15.00;99.90
18950;DHT22;9608;49.288;8.130;2023-11-19T11:30:31;15.10;99.90
18950;DHT22;9608;49.288;8.130;2023-11-19T11:33:10;15.10;99.90
18950;DHT22;9608;49.288;8.130;2023-11-19T11:35:50;15.10;99.90
18950;DHT22;9608;49.288;8.130;2023-11-19T11:38:22;15.10;99.90
18950;DHT22;9608;49.288;8.130;2023-11-19T11:41:17;15.10;99.90
18950;DHT22;9608;49.288;8.130;2023-11-19T11:43:46;15.10;99.90
18950;DHT22;9608;49.288;8.130;2023-11-19T11:49:25;15.20;99.90
18950;DHT22;9608;49.288;8.130;2023-11-19T11:52:01;15.20;99.90
18950;DHT22;9608;49.288;8.130;2023-11-19T11:54:29;15.20;99.90
18950;DHT22;9608;49.288;8.130;2023-11-19T11:57:18;15.30;99.90
18950;DHT22;9608;49.288;8.130;2023-11-19T11:59:47;15.30;99.90
18950;DHT22;9608;49.288;8.130;2023-11-19T12:02:15;15.30;99.90
18950;DHT22;9608;49.288;8.130;2023-11-19T12:04:47;15.30;99.90
18950;DHT22;9608;49.288;8.130;2023-11-19T12:07:16;15.30;99.90
18950;DHT22;9608;49.288;8.130;2023-11-19T12:09:48;15.10;99.90
18950;DHT22;9608;49.288;8.130;2023-11-19T12:12:19;15.00;99.90
18950;DHT22;9608;49.288;8.130;2023-11-19T12:15:16;14.90;99.90
18950;DHT22;9608;49.288;8.130;2023-11-19T12:17:49;14.80;99.90
18950;DHT22;9608;49.288;8.130;2023-11-19T12:20:18;14.80;99.90
18950;DHT22;9608;49.288;8.130;2023-11-19T12:22:47;14.70;99.90
18950;DHT22;9608;49.288;8.130;2023-11-19T12:25:15;14.70;99.90
18950;DHT22;9608;49.288;8.130;2023-11-19T12:27:44;14.80;99.90
18950;DHT22;9608;49.288;8.130;2023-11-19T12:30:11;14.70;99.90
18950;DHT22;9608;49.288;8.130;2023-11-19T12:32:39;14.70;99.90
18950;DHT22;9608;49.288;8.130;2023-11-19T12:35:07;14.70;99.90
18950;DHT22;9608;49.288;8.130;2023-11-19T12:37:43;14.60;99.90
18950;DHT22;9608;49.288;8.130;2023-11-19T12:40:17;14.60;99.90
18950;DHT22;9608;49.288;8.130;2023-11-19T12:42:44;14.60;99.90
18950;DHT22;9608;49.288;8.130;2023-11-19T12:45:11;14.60;99.90
18950;DHT22;9608;49.288;8.130;2023-11-19T12:47:39;14.60;99.90
18950;DHT22;9608;49.288;8.130;2023-11-19T12:50:07;14.70;99.90
18950;DHT22;9608;49.288;8.130;2023-11-19T12:52:34;14.60;99.90
18950;DHT22;9608;49.288;8.130;2023-11-19T12:55:03;14.60;99.90
18950;DHT22;9608;49.288;8.130;2023-11-19T12:57:37;14.60;99.90
18950;DHT22;9608;49.288;8.130;2023-11-19T13:00:05;14.50;99.90
18950;DHT22;9608;49.288;8.130;2023-11-19T13:02:45;14.50;99.90
18950;DHT22;9608;49.288;8.130;2023-11-19T13:05:26;14.40;99.90
18950;DHT22;9608;49.288;8.130;2023-11-19T13:07:59;14.50;99.90
18950;DHT22;9608;49.288;8.130;2023-11-19T13:10:27;14.50;99.90
18950;DHT22;9608;49.288;8.130;2023-11-19T13:13:02;14.40;99.90
18950;DHT22;9608;49.288;8.130;2023-11-19T13:15:29;14.30;99.90
18950;DHT22;9608;49.288;8.130;2023-11-19T13:17:56;14.30;99.90
18950;DHT22;9608;49.288;8.130;2023-11-19T13:20:22;14.30;99.90
18950;DHT22;9608;49.288;8.130;2023-11-19T13:22:56;14.40;99.90
18950;DHT22;9608;49.288;8.130;2023-11-19T13:25:23;14.40;99.90
18950;DHT22;9608;49.288;8.130;2023-11-19T13:27:52;14.50;99.90
18950;DHT22;9608;49.288;8.130;2023-11-19T13:30:19;14.50;99.90
18950;DHT22;9608;49.288;8.130;2023-11-19T13:32:46;14.50;99.90
18950;DHT22;9608;49.288;8.130;2023-11-19T13:35:12;14.50;99.90
18950;DHT22;9608;49.288;8.130;2023-11-19T13:37:39;14.60;99.90
18950;DHT22;9608;49.288;8.130;2023-11-19T13:40:07;14.60;99.90
18950;DHT22;9608;49.288;8.130;2023-11-19T13:42:36;14.50;99.90
18950;DHT22;9608;49.288;8.130;2023-11-19T13:45:05;14.60;99.90
18950;DHT22;9608;49.288;8.130;2023-11-19T13:47:36;14.60;99.90
18950;DHT22;9608;49.288;8.130;2023-11-19T13:50:04;14.60;99.90
18950;DHT22;9608;49.288;8.130;2023-11-19T13:52:31;14.60;99.90
18950;DHT22;9608;49.288;8.130;2023-11-19T13:54:58;14.60;99.90
18950;DHT22;9608;49.288;8.130;2023-11-19T13:57:25;14.80;99.90
18950;DHT22;9608;49.288;8.130;2023-11-19T13:59:52;14.90;99.90
18950;DHT22;9608;49.288;8.130;2023-11-19T14:02:20;15.00;99.90
18950;DHT22;9608;49.288;8.130;2023-11-19T14:04:46;15.20;99.90
18950;DHT22;9608;49.288;8.130;2023-11-19T14:07:13;15.20;99.90
18950;DHT22;9608;49.288;8.130;2023-11-19T14:09:41;15.30;99.90
18950;DHT22;9608;49.288;8.130;2023-11-19T14:12:08;15.30;99.90
18950;DHT22;9608;49.288;8.130;2023-11-19T14:14:38;15.20;99.90
18950;DHT22;9608;49.288;8.130;2023-11-19T14:17:04;15.10;99.90
18950;DHT22;9608;49.288;8.130;2023-11-19T14:19:34;15.10;99.90
18950;DHT22;9608;49.288;8.130;2023-11-19T14:22:01;15.10;99.90
18950;DHT22;9608;49.288;8.130;2023-11-19T14:24:31;15.00;99.90
18950;DHT22;9608;49.288;8.130;2023-11-19T14:26:58;15.00;99.90
18950;DHT22;9608;49.288;8.130;2023-11-19T14:29:25;15.00;99.90
18950;DHT22;9608;49.288;8.130;2023-11-19T14:31:52;15.00;99.90
18950;DHT22;9608;49.288;8.130;2023-11-19T14:34:19;14.90;99.90
18950;DHT22;9608;49.288;8.130;2023-11-19T14:36:47;14.90;99.90
18950;DHT22;9608;49.288;8.130;2023-11-19T14:39:15;14.80;99.90
18950;DHT22;9608;49.288;8.130;2023-11-19T14:41:42;14.80;99.90
18950;DHT22;9608;49.288;8.130;2023-11-19T14:44:09;14.80;99.90
18950;DHT22;9608;49.288;8.130;2023-11-19T14:46:36;14.70;99.90
18950;DHT22;9608;49.288;8.130;2023-11-19T14:49:03;14.70;99.90
18950;DHT22;9608;49.288;8.130;2023-11-19T14:51:30;14.60;99.90
18950;DHT22;9608;49.288;8.130;2023-11-19T14:53:58;14.50;99.90
18950;DHT22;9608;49.288;8.130;2023-11-19T14:56:25;14.50;99.90
18950;DHT22;9608;49.288;8.130;2023-11-19T14:58:51;14.40;99.90
18950;DHT22;9608;49.288;8.130;2023-11-19T15:01:18;14.40;99.90
18950;DHT22;9608;49.288;8.130;2023-11-19T15:03:45;14.40;99.90
18950;DHT22;9608;49.288;8.130;2023-11-19T15:06:11;14.40;99.90
18950;DHT22;9608;49.288;8.130;2023-11-19T15:08:38;14.50;99.90
18950;DHT22;9608;49.288;8.130;2023-11-19T15:11:06;14.50;99.90
18950;DHT22;9608;49.288;8.130;2023-11-19T15:13:34;14.50;99.90
18950;DHT22;9608;49.288;8.130;2023-11-19T15:16:03;14.40;99.90
18950;DHT22;9608;49.288;8.130;2023-11-19T15:18:30;14.40;99.90
18950;DHT22;9608;49.288;8.130;2023-11-19T15:20:57;14.40;99.90
18950;DHT22;9608;49.288;8.130;2023-11-19T15:23:24;14.40;99.90
18950;DHT22;9608;49.288;8.130;2023-11-19T15:25:51;14.30;99.90
18950;DHT22;9608;49.288;8.130;2023-11-19T15:28:19;14.20;99.90
18950;DHT22;9608;49.288;8.130;2023-11-19T15:30:45;14.10;99.90
18950;DHT22;9608;49.288;8.130;2023-11-19T15:33:12;14.10;99.90
18950;DHT22;9608;49.288;8.130;2023-11-19T15:35:39;14.00;99.90
18950;DHT22;9608;49.288;8.130;2023-11-19T15:38:06;13.90;99.90
18950;DHT22;9608;49.288;8.130;2023-11-19T15:40:35;13.90;99.90
18950;DHT22;9608;49.288;8.130;2023-11-19T15:43:02;13.90;99.90
18950;DHT22;9608;49.288;8.130;2023-11-19T15:45:30;13.90;99.90
18950;DHT22;9608;49.288;8.130;2023-11-19T15:48:01;14.00;99.90
18950;DHT22;9608;49.288;8.130;2023-11-19T15:50:28;13.90;99.90
18950;DHT22;9608;49.288;8.130;2023-11-19T15:52:56;13.80;99.90
18950;DHT22;9608;49.288;8.130;2023-11-19T15:55:24;13.90;99.90
18950;DHT22;9608;49.288;8.130;2023-11-19T15:57:51;14.10;99.90